KPIH/PIH METAR and TAF weather

Enter ICAO airport designator
Station Type Date Time Source
KPIH METAR 2020/09/26 20:53 UTC NOAA

KPIH 262053Z 23024G37KT 10SM SCT045 19/05 A3007 RMK AO2 PK WND 25042/2004 SLP148 T01890050 58005


Station Type Date Time Source
KPIH Decoded METAR 2020/09/26 20:53 UTC NOAA

POCATELLO REGIONAL AIRPORT, ID, United States (KPIH) 42-55N 112-36W 1359M
Sep 26, 2020 - 04:53 PM EDT / 2020.09.26 2053 UTC
Wind: from the SW (230 degrees) at 28 MPH (24 KT) gusting to 43 MPH (37 KT):0
Visibility: 10 mile(s):0
Sky conditions: partly cloudy
Temperature: 66.0 F (18.9 C)
Dew Point: 41.0 F (5.0 C)
Relative Humidity: 39%
Pressure (altimeter): 30.07 in. Hg (1018 hPa)
Pressure tendency: 0.01 inches (0.5 hPa) lower than three hours ago
ob: KPIH 262053Z 23024G37KT 10SM SCT045 19/05 A3007 RMK AO2 PK WND 25042/2004 SLP148 T01890050 58005
cycle: 21

Station Type Date Time Source
KPIH TAF 2020/09/26 19:51 UTC NOAA

TAF
AMD KPIH 261848Z 2619/2718 25025G35KT P6SM FEW070 BKN120
FM270300 22015G25KT P6SM FEW250

Example: see airport list